Time;durP1;ratioP1;P1;durP2;ratioP2;P2;SDS_P1;SDS_P2;PMS_P1;PMS_P2;Temp;Humidity;BMP_temperature;BMP_pressure;BME280_temperature;BME280_humidity;BME280_pressure;Samples;Min_cycle;Max_cycle;Signal;HPM_P1;HPM_P2
2021/12/27 00:00:35;;;;;;;;;7.50;4.50;;;;;11.23;80.59;99486.50;5037615;28;45374;-59
2021/12/27 00:03:01;;;;;;;;;4.75;4.00;;;;;11.23;80.85;99486.50;5037843;28;45350;-58
2021/12/27 00:05:27;;;;;;;;;4.00;3.00;;;;;11.22;80.46;99479.31;5037898;28;45506;-54
2021/12/27 00:07:54;;;;;;;;;3.00;3.00;;;;;11.23;80.34;99467.28;5019650;28;46682;-57
2021/12/27 00:10:21;;;;;;;;;5.00;3.00;;;;;11.22;80.08;99476.56;5035789;28;45416;-60
2021/12/27 00:12:46;;;;;;;;;4.80;4.80;;;;;11.18;80.70;99455.34;5019937;28;45442;-56
2021/12/27 00:15:13;;;;;;;;;3.00;2.00;;;;;11.23;79.90;99458.19;5019875;28;45556;-57
2021/12/27 00:17:42;;;;;;;;;3.20;3.00;;;;;11.17;79.99;99448.19;5037039;28;46150;-61
2021/12/27 00:20:10;;;;;;;;;2.40;2.40;;;;;11.16;80.03;99452.03;4998254;28;46044;-59
2021/12/27 00:22:36;;;;;;;;;2.60;2.60;;;;;11.21;80.15;99454.88;5037477;28;45370;-59
2021/12/27 00:25:01;;;;;;;;;4.00;3.75;;;;;11.24;80.00;99449.72;5031908;28;45756;-56
2021/12/27 00:27:27;;;;;;;;;3.00;3.00;;;;;11.23;80.37;99459.03;5037235;28;46504;-58
2021/12/27 00:29:53;;;;;;;;;7.00;2.50;;;;;11.28;80.12;99457.44;5037402;28;45378;-58
2021/12/27 00:32:19;;;;;;;;;4.00;3.00;;;;;11.26;79.89;99452.19;5037595;28;45428;-53
2021/12/27 00:34:44;;;;;;;;;3.20;2.60;;;;;11.08;80.47;99417.56;5036088;28;45470;-55
2021/12/27 00:37:10;;;;;;;;;7.75;3.25;;;;;11.24;79.97;99441.47;5022362;28;46076;-60
2021/12/27 00:39:35;;;;;;;;;3.50;2.25;;;;;11.25;80.37;99445.88;5016047;28;45329;-57
2021/12/27 00:42:01;;;;;;;;;1.00;1.00;;;;;11.20;79.99;99431.22;5017039;28;45313;-57
2021/12/27 00:44:27;;;;;;;;;2.75;2.00;;;;;11.11;80.30;99412.41;5017546;28;45624;-58
2021/12/27 00:46:52;;;;;;;;;3.00;3.00;;;;;11.26;80.59;99441.19;5015581;28;46198;-56
2021/12/27 00:49:18;;;;;;;;;2.00;2.00;;;;;11.25;80.21;99440.38;5015975;28;45341;-59
2021/12/27 00:51:43;;;;;;;;;4.00;3.00;;;;;11.22;79.87;99438.13;5017227;28;45308;-61
2021/12/27 00:54:09;;;;;;;;;1.75;1.75;;;;;11.23;80.02;99442.56;5017477;28;45385;-58
2021/12/27 00:56:34;;;;;;;;;1.00;1.00;;;;;11.24;80.12;99446.97;5016905;28;45631;-56
2021/12/27 00:59:00;;;;;;;;;2.75;2.00;;;;;11.25;80.42;99443.13;5016547;28;45822;-59
2021/12/27 01:01:25;;;;;;;;;2.50;2.50;;;;;11.24;80.26;99438.72;5016979;28;45432;-57
2021/12/27 01:03:51;;;;;;;;;2.00;2.00;;;;;11.23;80.23;99441.72;5017347;28;45690;-59
2021/12/27 01:06:16;;;;;;;;;3.75;2.00;;;;;11.23;80.18;99437.06;5015407;28;46822;-59
2021/12/27 01:08:42;;;;;;;;;1.50;1.50;;;;;11.23;80.08;99437.06;5016731;28;45315;-55
2021/12/27 01:13:45;;;;;;;;;2.80;2.80;;;;;11.23;80.44;99428.81;5017110;28;45353;-58
2021/12/27 01:16:12;;;;;;;;;3.40;2.40;;;;;11.23;80.17;99426.06;5016472;28;46902;-56
2021/12/27 01:18:41;;;;;;;;;1.00;1.00;;;;;11.25;79.69;99423.91;5015165;28;45404;-55
2021/12/27 01:21:07;;;;;;;;;1.40;1.00;;;;;11.25;80.29;99418.41;5015522;28;45414;-53
2021/12/27 01:23:33;;;;;;;;;2.75;2.00;;;;;11.25;79.75;99410.16;5015351;28;45641;-57
2021/12/27 01:25:58;;;;;;;;;3.50;2.00;;;;;11.17;80.11;99405.09;4998120;28;47425;-59
2021/12/27 01:28:24;;;;;;;;;4.00;2.00;;;;;11.28;80.05;99416.25;5015105;28;45269;-57
2021/12/27 01:30:50;;;;;;;;;2.25;1.00;;;;;11.28;79.75;99413.50;5016489;28;45243;-58
2021/12/27 01:33:20;;;;;;;;;1.00;1.00;;;;;11.27;80.12;99407.19;5016840;28;45408;-60
2021/12/27 01:35:46;;;;;;;;;2.00;2.00;;;;;11.28;79.98;99400.59;5018504;28;45392;-59
2021/12/27 01:38:13;;;;;;;;;3.00;2.00;;;;;11.21;80.02;99387.03;5018128;28;45327;-59
2021/12/27 01:40:39;;;;;;;;;2.40;2.40;;;;;11.31;80.18;99400.09;5017775;28;45457;-53
2021/12/27 01:43:11;;;;;;;;;1.80;1.80;;;;;11.31;79.63;99402.84;5036645;28;45389;-56
2021/12/27 01:45:44;;;;;;;;;1.40;1.40;;;;;11.24;79.65;99388.44;5035956;28;46606;-53
2021/12/27 01:48:10;;;;;;;;;2.40;2.00;;;;;11.28;79.70;99392.38;5035701;28;45761;-59
2021/12/27 01:50:40;;;;;;;;;2.80;1.00;;;;;11.18;79.85;99373.81;5051233;28;45857;-55
2021/12/27 01:53:05;;;;;;;;;3.60;2.00;;;;;11.30;79.93;99389.38;5034838;28;45372;-58
2021/12/27 01:55:31;;;;;;;;;1.75;1.75;;;;;11.24;79.58;99392.03;5035609;28;45630;-55
2021/12/27 01:57:57;;;;;;;;;1.75;1.75;;;;;11.12;79.66;99372.88;5035360;28;45443;-61
2021/12/27 02:00:22;;;;;;;;;1.00;1.00;;;;;10.84;79.64;99319.69;5034521;28;45365;-58
2021/12/27 02:02:48;;;;;;;;;2.00;0.50;;;;;11.28;79.94;99394.25;5035755;28;45322;-58
2021/12/27 02:05:14;;;;;;;;;3.75;0.50;;;;;11.23;79.50;99387.63;5035081;28;46561;-60
2021/12/27 02:07:39;;;;;;;;;2.20;1.20;;;;;11.21;80.29;99389.75;5017340;28;45549;-60
2021/12/27 02:10:05;;;;;;;;;2.25;2.25;;;;;11.28;79.51;99392.38;5035731;28;45378;-54
2021/12/27 02:12:31;;;;;;;;;4.75;3.00;;;;;11.30;79.72;99392.94;5034109;28;45787;-58
2021/12/27 02:14:56;;;;;;;;;1.00;1.00;;;;;11.27;80.01;99381.63;5035360;28;45371;-59
2021/12/27 02:17:22;;;;;;;;;1.75;1.75;;;;;10.96;80.32;99338.00;5017579;28;45866;-56
2021/12/27 02:19:49;;;;;;;;;3.00;2.00;;;;;11.25;80.55;99377.22;5031098;28;45424;-59
2021/12/27 02:22:14;;;;;;;;;3.20;2.60;;;;;11.25;80.52;99384.59;5035398;28;45313;-57
2021/12/27 02:24:42;;;;;;;;;1.00;1.00;;;;;11.20;80.33;99374.38;5035070;28;45430;-56
2021/12/27 02:27:08;;;;;;;;;0.00;0.00;;;;;11.08;80.06;99358.00;5035427;28;45432;-54
2021/12/27 02:29:34;;;;;;;;;1.00;1.00;;;;;11.21;80.40;99376.03;5017294;28;45235;-60
2021/12/27 02:31:59;;;;;;;;;1.00;1.00;;;;;11.14;80.60;99358.91;5017516;28;45415;-58
2021/12/27 02:34:25;;;;;;;;;7.00;3.00;;;;;11.21;80.40;99369.72;5017163;28;45493;-55
2021/12/27 02:36:50;;;;;;;;;7.25;2.00;;;;;11.18;80.62;99365.56;5024728;28;45404;-54
2021/12/27 02:39:16;;;;;;;;;1.50;1.50;;;;;11.01;80.70;99343.59;4981169;28;45762;-57
2021/12/27 02:41:42;;;;;;;;;1.00;1.00;;;;;11.17;80.75;99363.06;5014998;28;45954;-56
2021/12/27 02:44:09;;;;;;;;;1.75;1.75;;;;;11.16;80.62;99364.97;4996993;28;46066;-56
2021/12/27 02:46:34;;;;;;;;;1.20;1.20;;;;;11.17;80.72;99358.41;4996882;28;45825;-60
2021/12/27 02:49:00;;;;;;;;;3.00;1.75;;;;;11.18;80.70;99368.31;4997022;28;45397;-57
2021/12/27 02:51:25;;;;;;;;;4.00;1.00;;;;;11.12;80.48;99355.56;4996606;28;45759;-57
2021/12/27 02:53:51;;;;;;;;;2.50;2.50;;;;;11.20;80.77;99348.84;5014955;28;45595;-61
2021/12/27 02:56:17;;;;;;;;;6.00;4.00;;;;;11.23;80.34;99351.91;5014923;28;45544;-55
2021/12/27 02:58:43;;;;;;;;;1.80;1.80;;;;;10.96;80.23;99299.59;5014813;28;45431;-52
2021/12/27 03:01:12;;;;;;;;;1.00;1.00;;;;;11.23;80.93;99346.44;5014768;28;45662;-59
2021/12/27 03:03:38;;;;;;;;;4.40;2.80;;;;;11.22;80.53;99339.25;5014738;28;46752;-59
2021/12/27 03:06:04;;;;;;;;;2.00;2.00;;;;;11.21;80.02;99340.34;5014885;28;45350;-56
2021/12/27 03:08:30;;;;;;;;;4.00;4.00;;;;;11.19;80.39;99333.44;5014512;28;45369;-53
2021/12/27 03:10:56;;;;;;;;;4.75;4.00;;;;;11.24;79.68;99339.00;5014873;28;45299;-56
2021/12/27 03:13:23;;;;;;;;;2.00;2.00;;;;;11.24;79.76;99339.00;4996505;28;47360;-58
2021/12/27 03:15:56;;;;;;;;;2.60;2.60;;;;;11.24;79.81;99333.50;5014575;28;45400;-55
2021/12/27 03:18:21;;;;;;;;;2.40;2.40;;;;;11.23;80.11;99340.94;4996631;28;45534;-57
2021/12/27 03:20:47;;;;;;;;;3.25;3.25;;;;;11.24;79.95;99328.84;4997233;28;45656;-53
2021/12/27 03:23:12;;;;;;;;;2.25;2.00;;;;;11.24;80.24;99334.34;5013701;28;45585;-60
2021/12/27 03:25:39;;;;;;;;;5.50;4.00;;;;;11.27;79.67;99332.19;5015094;28;45338;-59
2021/12/27 03:28:05;;;;;;;;;1.60;1.60;;;;;11.23;79.75;99320.88;5014531;28;45382;-53
2021/12/27 03:30:30;;;;;;;;;3.25;3.25;;;;;11.23;79.25;99326.34;5015055;28;46033;-57
2021/12/27 03:32:56;;;;;;;;;8.25;2.25;;;;;11.24;79.67;99334.34;5014480;28;45699;-59
2021/12/27 03:35:26;;;;;;;;;2.75;1.75;;;;;11.25;79.80;99325.03;5014545;28;45470;-56
2021/12/27 03:37:54;;;;;;;;;7.40;3.00;;;;;11.27;79.74;99321.19;5032033;28;45196;-55
2021/12/27 03:40:20;;;;;;;;;7.20;3.20;;;;;11.26;79.63;99309.38;5034888;28;45529;-54
2021/12/27 03:42:52;;;;;;;;;7.50;2.50;;;;;11.24;79.31;99311.53;5034547;28;45991;-59
2021/12/27 03:45:37;;;;;;;;;2.40;2.40;;;;;11.23;79.85;99305.22;5017221;28;45406;-56
2021/12/27 03:48:03;;;;;;;;;5.60;3.40;;;;;11.23;79.64;99291.50;5034349;28;45345;-55
2021/12/27 03:50:29;;;;;;;;;5.80;3.00;;;;;11.25;79.23;99297.56;5034219;28;45724;-56
2021/12/27 03:52:55;;;;;;;;;7.50;5.75;;;;;11.08;79.51;99269.28;5033685;28;46692;-60
2021/12/27 03:55:21;;;;;;;;;9.00;3.60;;;;;11.04;79.34;99262.66;5034251;28;45845;-59
2021/12/27 03:57:54;;;;;;;;;3.25;2.75;;;;;11.22;79.61;99294.50;5034492;28;45449;-56
2021/12/27 04:02:47;;;;;;;;;4.00;3.00;;;;;11.03;79.24;99260.97;5035203;28;46403;-57
2021/12/27 04:05:13;;;;;;;;;3.00;3.00;;;;;11.17;79.85;99289.75;5037202;28;45477;-57
2021/12/27 04:07:39;;;;;;;;;3.25;3.00;;;;;11.16;79.62;99279.84;5002784;28;45521;-58
2021/12/27 04:10:08;;;;;;;;;8.00;3.00;;;;;11.16;79.92;99282.56;5037599;28;45517;-55
2021/12/27 04:12:34;;;;;;;;;5.60;5.20;;;;;11.18;80.01;99285.94;5036772;28;46289;-58
2021/12/27 04:14:59;;;;;;;;;3.00;3.00;;;;;11.20;79.82;99281.00;5037041;28;45521;-54
2021/12/27 04:17:25;;;;;;;;;5.50;4.00;;;;;11.20;80.03;99282.94;5019087;28;45410;-59
2021/12/27 04:19:51;;;;;;;;;9.50;3.75;;;;;11.20;79.41;99280.19;5037225;28;45509;-56
2021/12/27 04:22:16;;;;;;;;;2.75;2.50;;;;;11.19;79.16;99275.75;5019159;28;45467;-57
2021/12/27 04:24:42;;;;;;;;;3.75;3.00;;;;;11.22;79.59;99278.00;5036795;28;45456;-60
2021/12/27 04:27:07;;;;;;;;;7.00;4.00;;;;;11.22;79.59;99276.06;5037484;28;45417;-58
2021/12/27 04:29:33;;;;;;;;;3.25;3.25;;;;;11.15;79.43;99267.19;5037631;28;45491;-56
2021/12/27 04:31:58;;;;;;;;;7.00;3.50;;;;;11.23;79.18;99279.66;5002611;28;46570;-61
2021/12/27 04:34:24;;;;;;;;;7.75;3.25;;;;;11.20;79.29;99278.25;5036979;28;45358;-59
2021/12/27 04:36:49;;;;;;;;;4.00;4.00;;;;;11.19;79.57;99275.75;5010044;28;45375;-54
2021/12/27 04:39:15;;;;;;;;;4.75;4.75;;;;;11.16;79.21;99270.78;5017370;28;45328;-58
2021/12/27 04:41:40;;;;;;;;;5.00;4.50;;;;;11.14;79.56;99281.19;5017050;28;46222;-52
2021/12/27 04:44:06;;;;;;;;;3.25;3.25;;;;;11.16;79.47;99279.03;5015468;28;45331;-53
2021/12/27 04:46:31;;;;;;;;;6.75;4.00;;;;;10.73;79.88;99218.25;5016955;28;45273;-59
2021/12/27 04:48:57;;;;;;;;;7.25;5.25;;;;;11.03;79.14;99266.44;5017275;28;45541;-56
2021/12/27 04:51:22;;;;;;;;;9.25;6.00;;;;;11.12;79.58;99281.44;5017018;28;45766;-55
2021/12/27 04:53:49;;;;;;;;;5.25;5.25;;;;;11.11;79.90;99296.25;5017894;28;45924;-57
2021/12/27 04:56:14;;;;;;;;;6.40;6.00;;;;;11.13;79.98;99294.06;4998511;28;45475;-57
2021/12/27 04:58:40;;;;;;;;;3.50;3.50;;;;;11.14;80.00;99295.75;5016051;28;45367;-53
2021/12/27 05:01:05;;;;;;;;;3.50;3.00;;;;;11.14;79.07;99300.41;4998293;28;45454;-56
2021/12/27 05:03:31;;;;;;;;;5.00;3.75;;;;;11.07;79.72;99306.91;5016678;28;45922;-59
2021/12/27 05:05:56;;;;;;;;;4.75;3.50;;;;;11.07;79.63;99300.56;4996968;28;45765;-51
2021/12/27 05:08:22;;;;;;;;;6.75;4.00;;;;;11.10;80.00;99311.06;5013379;28;45521;-52
2021/12/27 05:10:47;;;;;;;;;6.25;3.50;;;;;11.09;80.04;99306.63;5015200;28;45976;-59
2021/12/27 05:13:13;;;;;;;;;4.00;3.00;;;;;11.14;79.65;99306.72;5015494;28;45922;-52
2021/12/27 05:15:38;;;;;;;;;4.50;2.50;;;;;11.11;79.63;99302.56;5015834;28;45400;-59
2021/12/27 05:18:04;;;;;;;;;4.50;3.00;;;;;11.10;79.64;99305.56;5015969;28;45324;-56
2021/12/27 05:20:30;;;;;;;;;8.50;5.75;;;;;10.90;80.00;99273.97;5011789;28;45327;-55
2021/12/27 05:22:55;;;;;;;;;4.50;3.75;;;;;11.11;79.09;99305.31;4998838;28;45373;-58
2021/12/27 05:25:20;;;;;;;;;6.00;4.00;;;;;11.13;79.23;99299.56;4998013;28;45520;-58
2021/12/27 05:27:46;;;;;;;;;5.25;4.75;;;;;11.08;79.04;99305.81;5016413;28;45182;-52
2021/12/27 05:30:12;;;;;;;;;3.50;2.75;;;;;11.10;78.88;99300.09;5015561;28;46135;-52
2021/12/27 05:32:39;;;;;;;;;3.50;3.00;;;;;11.11;79.13;99299.00;5016186;28;45898;-55
2021/12/27 05:35:05;;;;;;;;;5.20;5.00;;;;;11.16;78.69;99295.50;5016025;28;45514;-53
2021/12/27 05:37:31;;;;;;;;;4.40;4.40;;;;;11.14;79.17;99270.22;5029169;28;45455;-54
2021/12/27 05:40:03;;;;;;;;;5.00;4.00;;;;;11.18;79.47;99274.09;5017861;28;45478;-51
2021/12/27 05:42:28;;;;;;;;;11.00;7.80;;;;;11.24;78.76;99278.59;5018900;28;45306;-52
2021/12/27 05:44:54;;;;;;;;;6.75;3.50;;;;;11.07;78.88;99242.91;5035625;28;45334;-59
2021/12/27 05:47:19;;;;;;;;;3.00;3.00;;;;;11.20;78.92;99267.28;5018247;28;45627;-55
2021/12/27 05:49:45;;;;;;;;;5.00;4.00;;;;;11.19;78.72;99254.63;5035531;28;47756;-55
2021/12/27 05:52:10;;;;;;;;;4.00;2.25;;;;;11.19;79.09;99238.16;5035173;28;45711;-59
2021/12/27 05:54:36;;;;;;;;;2.75;2.75;;;;;11.18;79.13;99233.75;5036016;28;45786;-57
2021/12/27 05:57:03;;;;;;;;;4.00;3.50;;;;;11.16;78.58;99226.84;5018131;28;45752;-53
2021/12/27 05:59:28;;;;;;;;;3.80;3.80;;;;;11.17;78.63;99218.34;5017329;28;47379;-56
2021/12/27 06:01:54;;;;;;;;;9.00;4.00;;;;;11.12;78.61;99201.81;5035122;28;45445;-69
2021/12/27 06:04:19;;;;;;;;;7.00;6.50;;;;;11.10;78.74;99193.00;5001317;28;45470;-57
2021/12/27 06:06:45;;;;;;;;;7.75;5.00;;;;;11.09;78.34;99194.91;5035921;28;45401;-54
2021/12/27 06:09:10;;;;;;;;;4.25;4.00;;;;;11.04;78.90;99186.59;5035256;28;45370;-58
2021/12/27 06:11:36;;;;;;;;;6.00;4.00;;;;;11.01;78.70;99189.84;5015816;28;45344;-54
2021/12/27 06:14:01;;;;;;;;;6.00;5.50;;;;;10.91;79.15;99175.97;5035366;28;45361;-60
2021/12/27 06:16:27;;;;;;;;;6.00;5.25;;;;;10.81;78.95;99157.44;5017788;28;45995;-59
2021/12/27 06:18:52;;;;;;;;;7.00;7.00;;;;;10.81;79.38;99160.19;5034907;28;45425;-55
2021/12/27 06:21:18;;;;;;;;;8.25;8.25;;;;;10.47;79.36;99091.66;5017569;28;45375;-60
2021/12/27 06:23:44;;;;;;;;;7.75;5.25;;;;;10.68;79.03;99132.00;5035359;28;45943;-60
2021/12/27 06:26:09;;;;;;;;;9.00;7.00;;;;;10.68;79.62;99129.28;5035568;28;45722;-52
2021/12/27 06:28:35;;;;;;;;;7.75;7.75;;;;;10.56;79.95;99109.34;5017450;28;46176;-59
2021/12/27 06:31:03;;;;;;;;;9.50;8.00;;;;;10.67;79.36;99121.31;5035376;28;45509;-56
2021/12/27 06:33:29;;;;;;;;;7.00;7.00;;;;;10.62;78.24;99113.00;5035379;28;45420;-56
2021/12/27 06:35:55;;;;;;;;;7.80;7.40;;;;;10.36;78.98;99071.44;5017306;28;45538;-51
2021/12/27 06:38:23;;;;;;;;;8.25;5.75;;;;;10.55;79.28;99091.22;5016869;28;48111;-60
2021/12/27 06:40:49;;;;;;;;;5.80;3.00;;;;;10.36;79.59;99061.28;5035132;28;45776;-60
2021/12/27 06:43:14;;;;;;;;;6.60;4.00;;;;;10.54;79.88;99084.06;5035527;28;45176;-52
2021/12/27 06:45:40;;;;;;;;;6.25;5.25;;;;;10.53;79.04;99076.94;5035451;28;45776;-56
2021/12/27 06:48:06;;;;;;;;;6.50;4.25;;;;;10.44;78.55;99065.56;5035060;28;46426;-59
2021/12/27 06:50:31;;;;;;;;;5.50;4.00;;;;;10.54;78.58;99082.19;5034591;28;45367;-57
2021/12/27 06:52:57;;;;;;;;;7.00;7.00;;;;;10.52;78.60;99089.00;5017197;28;45445;-54
2021/12/27 06:55:22;;;;;;;;;7.00;6.00;;;;;10.33;79.23;99061.81;5017184;28;45535;-59
2021/12/27 06:57:49;;;;;;;;;5.25;4.00;;;;;10.31;79.59;99059.31;5034877;28;46437;-57
2021/12/27 07:00:15;;;;;;;;;8.40;5.60;;;;;10.48;79.09;99090.56;5034829;28;45452;-53
2021/12/27 07:02:41;;;;;;;;;8.60;8.00;;;;;10.49;79.01;99101.28;5035398;28;45433;-55
2021/12/27 07:05:06;;;;;;;;;10.40;7.60;;;;;10.41;78.98;99097.03;5017401;28;45418;-60
2021/12/27 07:07:32;;;;;;;;;9.00;5.00;;;;;10.41;79.15;99091.53;5034553;28;45653;-56
2021/12/27 07:09:57;;;;;;;;;8.00;8.00;;;;;10.39;79.11;99093.72;5034991;28;45322;-60
2021/12/27 07:12:23;;;;;;;;;3.00;3.00;;;;;10.37;78.51;99090.41;5035028;28;45407;-60
2021/12/27 07:14:48;;;;;;;;;4.50;4.50;;;;;10.40;79.42;99084.41;5034920;28;45410;-56
2021/12/27 07:17:15;;;;;;;;;7.50;4.00;;;;;10.41;78.83;99082.50;5034689;28;46644;-57
2021/12/27 07:19:41;;;;;;;;;9.80;7.00;;;;;10.42;78.88;99087.75;5034704;28;45484;-62
2021/12/27 07:22:06;;;;;;;;;3.00;3.00;;;;;10.44;78.83;99082.84;5033841;28;45490;-57
2021/12/27 07:24:32;;;;;;;;;4.00;4.00;;;;;10.40;78.24;99076.16;5034355;28;45719;-57
2021/12/27 07:26:57;;;;;;;;;3.00;3.00;;;;;10.26;78.23;99055.66;5034326;28;45690;-57
2021/12/27 07:29:22;;;;;;;;;7.00;7.00;;;;;10.39;78.19;99084.66;5034491;28;45430;-54
2021/12/27 07:31:48;;;;;;;;;6.00;3.00;;;;;10.38;78.37;99086.56;5034562;28;45433;-56
2021/12/27 07:34:14;;;;;;;;;4.50;4.50;;;;;10.34;78.18;99095.56;5034968;28;45421;-61
2021/12/27 07:36:39;;;;;;;;;3.00;3.00;;;;;10.31;78.99;99092.22;5030643;28;45462;-58
2021/12/27 07:39:06;;;;;;;;;7.00;5.50;;;;;10.29;77.90;99088.06;5017675;28;45361;-57
2021/12/27 07:41:31;;;;;;;;;5.60;5.60;;;;;10.36;78.94;99098.88;5017771;28;45311;-61
2021/12/27 07:43:57;;;;;;;;;3.25;2.00;;;;;10.15;77.98;99071.13;5018391;28;45356;-58
2021/12/27 07:46:23;;;;;;;;;6.75;6.75;;;;;10.34;78.37;99101.84;5017293;28;46103;-56
2021/12/27 07:48:49;;;;;;;;;7.20;5.20;;;;;10.33;78.29;99086.50;4999505;28;45294;-56
2021/12/27 07:51:14;;;;;;;;;4.50;4.00;;;;;10.31;78.93;99077.69;4988700;28;45542;-61
2021/12/27 07:53:40;;;;;;;;;3.25;3.25;;;;;10.30;77.68;99082.34;5009700;28;45665;-55
2021/12/27 07:56:07;;;;;;;;;6.00;4.00;;;;;10.30;78.19;99087.81;4999451;28;45430;-58
2021/12/27 07:58:33;;;;;;;;;6.80;4.40;;;;;10.21;78.63;99072.03;5017362;28;45429;-60
2021/12/27 08:00:58;;;;;;;;;7.00;3.50;;;;;10.24;78.23;99083.34;4999571;28;45486;-56
2021/12/27 08:03:24;;;;;;;;;4.25;4.25;;;;;10.26;78.15;99089.38;5000214;28;45718;-56
2021/12/27 08:05:49;;;;;;;;;3.00;2.00;;;;;10.19;77.69;99069.53;5016872;28;46878;-59
2021/12/27 08:08:15;;;;;;;;;9.50;6.00;;;;;10.27;78.37;99080.09;4999704;28;45262;-55
2021/12/27 08:10:41;;;;;;;;;6.00;4.00;;;;;10.30;77.91;99054.91;5017573;28;45359;-59
2021/12/27 08:13:07;;;;;;;;;6.40;6.20;;;;;10.43;77.72;99072.13;4964958;28;45531;-61
2021/12/27 08:15:33;;;;;;;;;5.25;4.25;;;;;10.43;76.78;99078.47;4987872;28;47162;-59
2021/12/27 08:17:58;;;;;;;;;3.25;3.25;;;;;10.28;76.64;99054.34;4978469;28;45475;-61
2021/12/27 08:20:23;;;;;;;;;9.00;6.00;;;;;10.37;77.49;99068.47;5013476;28;45516;-61
2021/12/27 08:22:49;;;;;;;;;6.75;6.75;;;;;10.30;77.21;99056.84;5021409;28;46501;-61
2021/12/27 08:25:15;;;;;;;;;4.00;4.00;;;;;10.35;76.64;99067.06;5029206;28;47187;-60
2021/12/27 08:27:41;;;;;;;;;6.00;3.40;;;;;10.29;76.75;99064.22;5031522;28;45538;-60
2021/12/27 08:30:07;;;;;;;;;4.50;4.50;;;;;10.27;76.66;99047.22;5033069;28;45849;-55
2021/12/27 08:32:33;;;;;;;;;5.20;5.20;;;;;10.31;76.59;99055.75;5013894;28;45798;-62
2021/12/27 08:35:01;;;;;;;;;6.00;4.00;;;;;10.29;76.97;99049.69;5007629;28;46173;-59
2021/12/27 08:37:30;;;;;;;;;2.20;2.20;;;;;10.30;77.61;99056.84;5018615;28;45590;-61
2021/12/27 08:39:56;;;;;;;;;6.80;5.60;;;;;10.10;77.41;99030.78;5031612;28;45537;-62
2021/12/27 08:42:22;;;;;;;;;5.00;5.00;;;;;10.33;77.52;99055.47;5019546;28;46193;-56
2021/12/27 08:44:47;;;;;;;;;6.00;5.50;;;;;10.26;77.72;99044.72;5009654;28;47011;-60
2021/12/27 08:47:15;;;;;;;;;3.00;3.00;;;;;10.33;77.11;99053.59;5010406;28;45425;-63
2021/12/27 08:49:41;;;;;;;;;6.00;6.00;;;;;10.27;77.51;99052.69;5009303;28;45903;-62
2021/12/27 08:52:07;;;;;;;;;6.00;4.00;;;;;10.30;77.40;99045.88;5003747;28;45406;-57
2021/12/27 08:54:32;;;;;;;;;4.00;4.00;;;;;10.40;76.88;99045.16;5035424;28;46036;-60
2021/12/27 08:56:58;;;;;;;;;3.25;3.25;;;;;10.44;77.07;99038.97;5009735;28;45853;-62
2021/12/27 08:59:23;;;;;;;;;7.00;4.50;;;;;10.28;77.39;99004.16;5010267;28;45466;-57
2021/12/27 09:01:49;;;;;;;;;7.25;5.00;;;;;10.51;77.32;99027.00;4990090;28;45494;-63
2021/12/27 09:04:14;;;;;;;;;3.00;3.00;;;;;10.33;77.25;99006.13;5000389;28;45635;-57
2021/12/27 09:06:40;;;;;;;;;3.00;3.00;;;;;10.27;77.05;99002.50;5012318;28;45541;-53
2021/12/27 09:09:05;;;;;;;;;1.50;1.00;;;;;10.47;76.62;99034.91;5030850;28;45435;-57
2021/12/27 09:11:31;;;;;;;;;6.25;4.50;;;;;10.25;77.28;99008.22;5016978;28;45680;-54
2021/12/27 09:13:57;;;;;;;;;5.00;2.00;;;;;10.43;77.30;99031.84;5001791;28;45802;-50
2021/12/27 09:16:23;;;;;;;;;6.60;4.40;;;;;10.39;77.53;99036.13;5011129;28;45756;-54
2021/12/27 09:18:48;;;;;;;;;4.00;3.25;;;;;10.35;76.82;99032.22;5011000;28;45471;-53
2021/12/27 09:21:14;;;;;;;;;3.00;3.00;;;;;10.37;77.41;99038.28;5012814;28;45500;-53
2021/12/27 09:23:41;;;;;;;;;3.50;2.50;;;;;10.36;77.34;99028.38;5011115;28;45478;-59
2021/12/27 09:26:07;;;;;;;;;4.00;3.40;;;;;10.44;77.25;99035.38;4994202;28;45609;-54
2021/12/27 09:28:33;;;;;;;;;3.00;1.60;;;;;10.39;76.93;99036.13;5011866;28;45716;-54
2021/12/27 09:30:59;;;;;;;;;3.00;2.00;;;;;10.42;77.67;99037.53;4994547;28;45344;-52
2021/12/27 09:33:25;;;;;;;;;3.25;3.25;;;;;10.43;77.38;99031.84;4978130;28;46087;-56
2021/12/27 09:35:52;;;;;;;;;3.25;3.25;;;;;10.27;76.61;99000.59;5010603;28;45707;-55
2021/12/27 09:38:18;;;;;;;;;3.20;3.20;;;;;10.35;77.04;99015.75;4993959;28;45451;-54
2021/12/27 09:40:45;;;;;;;;;10.75;6.50;;;;;10.42;77.18;99027.41;5012273;28;45525;-57
2021/12/27 09:43:11;;;;;;;;;4.80;3.00;;;;;10.22;77.56;98995.03;4993672;28;46923;-61
2021/12/27 09:45:37;;;;;;;;;5.50;3.50;;;;;10.49;77.97;99026.41;4993970;28;45681;-53
2021/12/27 09:48:02;;;;;;;;;3.25;3.25;;;;;10.47;77.87;99017.59;5010581;28;45423;-56
2021/12/27 09:50:43;;;;;;;;;5.50;4.75;;;;;10.52;77.31;99014.94;4994117;28;46108;-60
2021/12/27 09:53:09;;;;;;;;;4.80;3.80;;;;;10.31;77.54;98981.72;4972483;28;46695;-58
2021/12/27 09:55:35;;;;;;;;;3.25;3.25;;;;;10.52;77.52;99017.69;4992085;28;45534;-57
2021/12/27 09:58:00;;;;;;;;;4.00;3.00;;;;;10.49;77.77;99018.16;4974633;28;45498;-55
2021/12/27 10:00:27;;;;;;;;;3.75;3.75;;;;;10.48;76.94;99009.13;4988618;28;45761;-56
2021/12/27 10:02:53;;;;;;;;;3.00;3.00;;;;;10.42;78.18;99002.72;4994179;28;45565;-60
2021/12/27 10:05:20;;;;;;;;;2.40;2.00;;;;;10.40;77.40;99018.56;4977722;28;45500;-55
2021/12/27 10:07:46;;;;;;;;;7.00;3.00;;;;;10.39;77.45;99011.44;4993700;28;45423;-53
2021/12/27 10:10:12;;;;;;;;;3.25;2.75;;;;;10.28;78.19;98995.91;4994355;28;45533;-56
2021/12/27 10:12:37;;;;;;;;;3.00;3.00;;;;;10.43;78.44;99020.88;4931762;28;46542;-59
2021/12/27 10:15:09;;;;;;;;;3.75;3.75;;;;;10.43;78.11;99023.59;4954677;28;46089;-53
2021/12/27 10:17:37;;;;;;;;;3.60;2.60;;;;;10.13;78.19;98969.09;4972427;28;45393;-56
2021/12/27 10:20:12;;;;;;;;;3.00;1.80;;;;;10.44;78.51;99017.03;4972358;28;46075;-55
2021/12/27 10:22:42;;;;;;;;;2.60;2.60;;;;;10.42;79.06;99012.84;4955121;28;46422;-57
2021/12/27 10:25:20;;;;;;;;;3.60;3.60;;;;;10.41;79.26;99013.94;5015995;28;45455;-57
2021/12/27 10:27:55;;;;;;;;;3.20;2.80;;;;;10.46;78.76;99010.47;5031089;28;45463;-58
2021/12/27 10:30:29;;;;;;;;;3.00;3.00;;;;;10.43;78.68;99007.16;5031471;28;45462;-53
2021/12/27 10:33:22;;;;;;;;;2.60;2.60;;;;;10.43;78.93;99012.63;5029684;28;45899;-57
2021/12/27 10:35:54;;;;;;;;;4.80;2.60;;;;;10.41;78.49;99006.53;5021152;28;45414;-56
2021/12/27 10:38:22;;;;;;;;;3.20;3.20;;;;;10.40;78.68;98993.91;5021379;28;45528;-51
2021/12/27 10:40:59;;;;;;;;;4.80;2.40;;;;;10.33;79.48;98993.25;5031050;28;45877;-53
2021/12/27 10:43:41;;;;;;;;;2.60;2.60;;;;;10.35;78.23;98993.81;5030876;28;46629;-55
2021/12/27 10:46:10;;;;;;;;;3.20;3.20;;;;;10.10;78.52;98945.81;5031022;28;45848;-56
2021/12/27 10:48:40;;;;;;;;;3.40;2.80;;;;;10.46;79.15;98992.06;5017338;28;45476;-57
2021/12/27 10:51:06;;;;;;;;;4.40;3.00;;;;;10.42;78.72;98989.00;5003770;28;45848;-53
2021/12/27 10:53:43;;;;;;;;;3.00;2.00;;;;;10.56;78.72;98989.47;4981390;28;45383;-55
2021/12/27 10:56:08;;;;;;;;;2.80;2.80;;;;;10.55;78.50;98982.34;5009174;28;45383;-51
2021/12/27 10:58:38;;;;;;;;;2.00;1.75;;;;;10.56;78.40;98988.63;5010742;28;45381;-55
2021/12/27 11:01:07;;;;;;;;;2.80;2.80;;;;;10.52;78.63;98990.25;5009904;28;45471;-53
2021/12/27 11:03:33;;;;;;;;;3.20;3.20;;;;;10.60;78.66;99000.75;5009312;28;46571;-57
2021/12/27 11:05:59;;;;;;;;;3.60;3.60;;;;;10.58;78.37;99002.94;5010539;28;45428;-51
2021/12/27 11:08:26;;;;;;;;;4.00;4.00;;;;;10.59;78.43;98988.13;5023341;28;45339;-52
2021/12/27 11:10:52;;;;;;;;;4.00;3.60;;;;;10.61;78.76;99015.31;5029163;28;45541;-52
2021/12/27 11:13:17;;;;;;;;;5.50;5.00;;;;;10.61;78.95;99013.41;5002763;28;48343;-53
2021/12/27 11:15:43;;;;;;;;;7.50;6.50;;;;;10.69;78.28;99012.13;5012755;28;45675;-52
2021/12/27 11:18:09;;;;;;;;;3.00;3.00;;;;;10.74;78.39;99012.19;5013839;28;45614;-60
2021/12/27 11:20:34;;;;;;;;;8.00;5.50;;;;;10.55;78.66;98981.50;5014526;28;45551;-60
2021/12/27 11:23:00;;;;;;;;;4.25;3.75;;;;;10.75;78.26;99008.38;5013898;28;45589;-52
2021/12/27 11:25:36;;;;;;;;;7.75;6.75;;;;;10.78;78.91;99018.00;5012427;28;45547;-55
2021/12/27 11:28:02;;;;;;;;;7.60;7.60;;;;;10.82;78.02;99019.13;5014128;28;45416;-61
2021/12/27 11:30:30;;;;;;;;;8.00;8.00;;;;;10.84;78.52;99014.25;5013826;28;45694;-52
2021/12/27 11:33:06;;;;;;;;;7.60;6.20;;;;;10.84;78.33;99014.25;5013858;28;45574;-56
2021/12/27 11:35:40;;;;;;;;;6.40;6.40;;;;;10.77;78.01;98991.66;4995994;28;45554;-60